createdAt,value
2023-04-09T00:01:04.513Z,10.60
2023-04-09T00:03:31.868Z,10.60
2023-04-09T00:06:01.609Z,10.60
2023-04-09T00:08:28.860Z,10.60
2023-04-09T00:11:03.029Z,10.60
2023-04-09T00:13:39.338Z,10.50
2023-04-09T00:16:08.498Z,10.50
2023-04-09T00:18:36.202Z,10.50
2023-04-09T00:21:03.440Z,10.40
2023-04-09T00:23:30.696Z,10.40
2023-04-09T00:25:57.856Z,10.40
2023-04-09T00:28:27.252Z,10.30
2023-04-09T00:30:54.392Z,10.30
2023-04-09T00:33:23.952Z,10.20
2023-04-09T00:35:53.405Z,10.20
2023-04-09T00:38:22.662Z,10.10
2023-04-09T00:40:52.324Z,10.10
2023-04-09T00:43:24.253Z,10.10
2023-04-09T00:45:51.687Z,10.10
2023-04-09T00:48:18.992Z,10.00
2023-04-09T00:50:53.034Z,10.00
2023-04-09T00:53:25.808Z,10.00
2023-04-09T00:55:55.155Z,9.90
2023-04-09T00:58:24.736Z,9.90
2023-04-09T01:00:57.601Z,9.90
2023-04-09T01:03:27.381Z,9.80
2023-04-09T01:06:01.831Z,9.80
2023-04-09T01:08:31.755Z,9.80
2023-04-09T01:11:21.008Z,9.70
2023-04-09T01:14:07.315Z,9.70
2023-04-09T01:16:37.945Z,9.70
2023-04-09T01:19:16.301Z,9.60
2023-04-09T01:21:45.368Z,9.60
2023-04-09T01:24:35.231Z,9.60
2023-04-09T01:27:09.118Z,9.50
2023-04-09T01:29:45.366Z,9.50
2023-04-09T01:32:14.150Z,9.50
2023-04-09T01:34:47.192Z,9.50
2023-04-09T01:37:18.273Z,9.50
2023-04-09T01:39:50.666Z,9.50
2023-04-09T01:42:22.833Z,9.50
2023-04-09T01:44:53.512Z,9.50
2023-04-09T01:47:23.515Z,9.50
2023-04-09T01:49:57.798Z,9.50
2023-04-09T01:52:27.620Z,9.50
2023-04-09T01:54:54.740Z,9.40
2023-04-09T01:57:21.876Z,9.40
2023-04-09T01:59:49.044Z,9.40
2023-04-09T02:02:25.302Z,9.40
2023-04-09T02:04:56.269Z,9.40
2023-04-09T02:07:51.116Z,9.40
2023-04-09T02:10:24.509Z,9.40
2023-04-09T02:12:56.390Z,9.40
2023-04-09T02:15:24.564Z,9.30
2023-04-09T02:17:53.840Z,9.40
2023-04-09T02:20:25.515Z,9.40
2023-04-09T02:22:52.653Z,9.40
2023-04-09T02:25:24.936Z,9.40
2023-04-09T02:27:52.075Z,9.50
2023-04-09T02:30:19.222Z,9.40
2023-04-09T02:32:48.649Z,9.40
2023-04-09T02:35:15.863Z,9.40
2023-04-09T02:37:45.442Z,9.40
2023-04-09T02:40:14.882Z,9.40
2023-04-09T02:42:44.187Z,9.40
2023-04-09T02:45:13.874Z,9.40
2023-04-09T02:47:41.082Z,9.30
2023-04-09T02:50:10.930Z,9.30
2023-04-09T02:52:38.060Z,9.30
2023-04-09T02:55:08.306Z,9.20
2023-04-09T02:57:40.083Z,9.20
2023-04-09T03:00:10.380Z,9.20
2023-04-09T03:02:37.666Z,9.20
2023-04-09T03:05:05.505Z,9.10
2023-04-09T03:07:34.817Z,9.10
2023-04-09T03:10:04.571Z,9.10
2023-04-09T03:12:34.003Z,9.00
2023-04-09T03:15:01.125Z,9.00
2023-04-09T03:17:32.113Z,9.00
2023-04-09T03:19:59.616Z,9.00
2023-04-09T03:22:31.673Z,8.90
2023-04-09T03:24:58.813Z,8.90
2023-04-09T03:27:32.090Z,8.90
2023-04-09T03:30:03.845Z,8.90
2023-04-09T03:32:33.388Z,8.90
2023-04-09T03:35:00.697Z,8.90
2023-04-09T03:37:27.918Z,8.90
2023-04-09T03:39:59.938Z,8.80
2023-04-09T03:42:29.651Z,8.90
2023-04-09T03:45:01.457Z,8.80
2023-04-09T03:47:33.272Z,8.90
2023-04-09T03:50:00.564Z,8.80
2023-04-09T03:52:30.336Z,8.80
2023-04-09T03:54:57.469Z,8.90
2023-04-09T03:57:24.595Z,8.90
2023-04-09T03:59:51.665Z,8.90
2023-04-09T04:02:21.227Z,8.90
2023-04-09T04:04:48.545Z,8.90
2023-04-09T04:07:20.281Z,8.90
2023-04-09T04:09:49.814Z,8.90
2023-04-09T04:12:16.965Z,8.80
2023-04-09T04:14:44.140Z,8.80
2023-04-09T04:17:13.854Z,8.80
2023-04-09T04:19:43.238Z,8.70
2023-04-09T04:22:12.870Z,8.70
2023-04-09T04:24:42.205Z,8.70
2023-04-09T04:27:11.753Z,8.70
2023-04-09T04:29:46.133Z,8.70
2023-04-09T04:32:15.494Z,8.70
2023-04-09T04:34:50.056Z,8.70
2023-04-09T04:37:19.515Z,8.70
2023-04-09T04:39:48.986Z,8.70
2023-04-09T04:42:18.644Z,8.70
2023-04-09T04:44:47.992Z,8.70
2023-04-09T04:47:19.596Z,8.60
2023-04-09T04:49:48.969Z,8.60
2023-04-09T04:52:20.411Z,8.60
2023-04-09T04:54:47.544Z,8.60
2023-04-09T04:57:16.930Z,8.50
2023-04-09T04:59:50.498Z,8.50
2023-04-09T05:02:19.822Z,8.50
2023-04-09T05:04:51.816Z,8.50
2023-04-09T05:07:18.911Z,8.40
2023-04-09T05:09:50.478Z,8.40
2023-04-09T05:12:22.236Z,8.40
2023-04-09T05:14:52.190Z,8.40
2023-04-09T05:17:24.906Z,8.40
2023-04-09T05:19:53.361Z,8.30
2023-04-09T05:22:25.104Z,8.40
2023-04-09T05:24:59.183Z,8.40
2023-04-09T05:27:28.719Z,8.40
2023-04-09T05:29:55.973Z,8.40
2023-04-09T05:32:23.176Z,8.40
2023-04-09T05:34:52.525Z,8.40
2023-04-09T05:37:19.732Z,8.50
2023-04-09T05:39:46.903Z,8.50
2023-04-09T05:42:14.108Z,8.50
2023-04-09T05:44:43.772Z,8.60
2023-04-09T05:47:15.374Z,8.60
2023-04-09T05:49:47.210Z,8.60
2023-04-09T05:52:16.943Z,8.70
2023-04-09T05:54:46.355Z,8.70
2023-04-09T05:57:13.536Z,8.70
2023-04-09T05:59:40.742Z,8.70
2023-04-09T06:02:10.568Z,8.80
2023-04-09T06:04:37.795Z,8.80
2023-04-09T06:07:07.250Z,8.80
2023-04-09T06:09:40.929Z,8.90
2023-04-09T06:12:10.390Z,8.90
2023-04-09T06:14:40.050Z,8.90
2023-04-09T06:17:07.416Z,9.00
2023-04-09T06:19:36.932Z,9.00
2023-04-09T06:22:06.283Z,9.00
2023-04-09T06:24:35.701Z,9.10
2023-04-09T06:27:02.872Z,9.10
2023-04-09T06:29:32.265Z,9.10
2023-04-09T06:31:59.465Z,9.20
2023-04-09T06:34:26.565Z,9.20
2023-04-09T06:36:53.706Z,9.30
2023-04-09T06:39:20.980Z,9.30
2023-04-09T06:41:50.573Z,9.30
2023-04-09T06:44:21.744Z,9.40
2023-04-09T06:46:49.227Z,9.40
2023-04-09T06:49:16.768Z,9.40
2023-04-09T06:51:43.936Z,9.40
2023-04-09T06:54:11.142Z,9.40
2023-04-09T06:56:38.292Z,9.50
2023-04-09T06:59:05.496Z,9.50
2023-04-09T07:01:33.093Z,9.50
2023-04-09T07:04:02.597Z,9.60
2023-04-09T07:06:32.033Z,9.60
2023-04-09T07:08:59.213Z,9.60
2023-04-09T07:11:26.538Z,9.70
2023-04-09T07:14:00.712Z,9.70
2023-04-09T07:16:27.857Z,9.70
2023-04-09T07:18:59.770Z,9.80
2023-04-09T07:21:28.353Z,9.80
2023-04-09T07:23:57.961Z,9.90
2023-04-09T07:26:29.836Z,9.90
2023-04-09T07:28:57.103Z,10.00
2023-04-09T07:31:24.241Z,10.00
2023-04-09T07:33:56.135Z,10.10
2023-04-09T07:36:23.452Z,10.10
2023-04-09T07:38:50.964Z,10.20
2023-04-09T07:41:23.918Z,10.20
2023-04-09T07:43:53.314Z,10.30
2023-04-09T07:46:21.830Z,10.40
2023-04-09T07:48:51.807Z,10.40
2023-04-09T07:51:26.429Z,10.50
2023-04-09T07:53:58.269Z,10.50
2023-04-09T07:56:27.634Z,10.60
2023-04-09T07:58:54.928Z,10.70
2023-04-09T08:01:26.179Z,10.70
2023-04-09T08:03:53.585Z,10.80
2023-04-09T08:06:28.265Z,10.80
2023-04-09T08:08:57.806Z,10.90
2023-04-09T08:11:30.568Z,11.00
2023-04-09T08:14:02.053Z,11.00
2023-04-09T08:16:30.388Z,11.10
2023-04-09T08:19:04.589Z,11.20
2023-04-09T08:21:34.614Z,11.30
2023-04-09T08:24:07.199Z,11.30
2023-04-09T08:26:36.943Z,11.40
2023-04-09T08:29:04.504Z,11.50
2023-04-09T08:31:31.929Z,11.50
2023-04-09T08:33:59.128Z,11.60
2023-04-09T08:36:28.937Z,11.70
2023-04-09T08:38:56.687Z,11.70
2023-04-09T08:41:28.661Z,11.80
2023-04-09T08:44:00.826Z,11.80
2023-04-09T08:46:29.475Z,11.90
2023-04-09T08:49:01.903Z,12.00
2023-04-09T08:51:32.068Z,12.00
2023-04-09T08:54:05.440Z,12.10
2023-04-09T08:56:35.778Z,12.10
2023-04-09T08:59:02.936Z,12.20
2023-04-09T09:01:35.221Z,12.30
2023-04-09T09:04:07.258Z,12.30
2023-04-09T09:06:39.407Z,12.40
2023-04-09T09:09:09.842Z,12.40
2023-04-09T09:11:45.590Z,12.40
2023-04-09T09:14:20.195Z,12.50
2023-04-09T09:16:56.386Z,12.60
2023-04-09T09:19:26.699Z,12.60
2023-04-09T09:21:57.716Z,12.70
2023-04-09T09:24:24.873Z,12.70
2023-04-09T09:26:55.781Z,12.80
2023-04-09T09:29:26.179Z,12.80
2023-04-09T09:31:56.652Z,12.90
2023-04-09T09:34:25.345Z,12.90
2023-04-09T09:36:55.169Z,12.90
2023-04-09T09:39:22.390Z,13.00
2023-04-09T09:42:07.886Z,13.10
2023-04-09T09:44:35.093Z,13.20
2023-04-09T09:47:04.164Z,13.20
2023-04-09T09:49:36.066Z,13.30
2023-04-09T09:52:08.030Z,13.30
2023-04-09T09:54:45.735Z,13.40
2023-04-09T09:57:16.534Z,13.40
2023-04-09T10:00:10.147Z,13.50
2023-04-09T10:02:54.268Z,13.60
2023-04-09T10:05:25.045Z,13.60
2023-04-09T10:07:57.758Z,13.60
2023-04-09T10:10:29.480Z,13.60
2023-04-09T10:12:59.338Z,13.70
2023-04-09T10:15:31.851Z,13.70
2023-04-09T10:17:59.115Z,13.80
2023-04-09T10:20:52.180Z,13.90
2023-04-09T10:23:50.887Z,13.90
2023-04-09T10:26:22.142Z,13.90
2023-04-09T10:29:08.601Z,14.00
2023-04-09T10:32:08.917Z,14.10
2023-04-09T10:34:41.697Z,14.20
2023-04-09T10:37:13.672Z,14.30
2023-04-09T10:39:44.629Z,14.40
2023-04-09T10:42:21.582Z,14.50
2023-04-09T10:45:04.563Z,14.70
2023-04-09T10:47:34.144Z,14.80
2023-04-09T10:50:18.290Z,14.80
2023-04-09T10:52:56.478Z,14.90
2023-04-09T10:55:44.952Z,15.00
2023-04-09T10:58:19.526Z,15.10
2023-04-09T11:00:50.396Z,15.20
2023-04-09T11:03:28.001Z,15.30
2023-04-09T11:06:02.775Z,15.30
2023-04-09T11:08:33.894Z,15.40
2023-04-09T11:11:02.419Z,15.50
2023-04-09T11:13:31.218Z,15.60
2023-04-09T11:16:00.568Z,15.70
2023-04-09T11:18:29.975Z,15.70
2023-04-09T11:21:03.302Z,15.80
2023-04-09T11:23:32.424Z,15.80
2023-04-09T11:26:02.394Z,15.90
2023-04-09T11:28:32.170Z,16.00
2023-04-09T11:30:59.390Z,16.00
2023-04-09T11:33:34.820Z,16.10
2023-04-09T11:36:04.499Z,16.10
2023-04-09T11:38:34.609Z,16.10
2023-04-09T11:41:04.014Z,16.10
2023-04-09T11:43:31.185Z,16.10
2023-04-09T11:45:59.714Z,16.20
2023-04-09T11:48:30.607Z,16.30
2023-04-09T11:51:00.767Z,16.40
2023-04-09T11:53:31.162Z,16.50
2023-04-09T11:56:02.670Z,16.60
2023-04-09T11:58:29.799Z,16.70
2023-04-09T12:00:59.986Z,16.70
2023-04-09T12:03:37.456Z,16.80
2023-04-09T12:06:11.065Z,16.90
2023-04-09T12:08:39.115Z,16.90
2023-04-09T12:11:16.150Z,17.00
2023-04-09T12:13:45.676Z,17.00
2023-04-09T12:16:14.000Z,17.00
2023-04-09T12:18:41.474Z,17.10
2023-04-09T12:21:10.889Z,17.10
2023-04-09T12:23:38.246Z,17.20
2023-04-09T12:26:08.425Z,17.20
2023-04-09T12:28:35.679Z,17.30
2023-04-09T12:31:03.596Z,17.30
2023-04-09T12:33:34.042Z,17.30
2023-04-09T12:36:01.498Z,17.30
2023-04-09T12:38:35.598Z,17.30
2023-04-09T12:41:02.814Z,17.40
2023-04-09T12:43:29.956Z,17.50
2023-04-09T12:45:58.278Z,17.50
2023-04-09T12:48:27.847Z,17.60
2023-04-09T12:50:55.141Z,17.60
2023-04-09T12:53:24.391Z,17.70
2023-04-09T12:55:51.713Z,17.70
2023-04-09T12:58:21.365Z,17.80
2023-04-09T13:00:53.000Z,17.80
2023-04-09T13:03:23.018Z,17.80
2023-04-09T13:05:50.600Z,17.90
2023-04-09T13:08:20.664Z,17.90
2023-04-09T13:10:47.914Z,18.00
2023-04-09T13:13:15.181Z,18.00
2023-04-09T13:15:46.317Z,18.00
2023-04-09T13:18:14.191Z,18.00
2023-04-09T13:20:41.570Z,18.00
2023-04-09T13:23:11.018Z,18.10
2023-04-09T13:25:38.219Z,18.10
2023-04-09T13:28:05.303Z,18.10
2023-04-09T13:30:32.475Z,18.20
2023-04-09T13:33:02.487Z,18.20
2023-04-09T13:35:34.560Z,18.20
2023-04-09T13:38:03.898Z,18.20
2023-04-09T13:40:33.161Z,18.20
2023-04-09T13:43:02.612Z,18.30
2023-04-09T13:45:31.861Z,18.30
2023-04-09T13:48:01.710Z,18.40
2023-04-09T13:50:29.302Z,18.40
2023-04-09T13:52:56.482Z,18.40
2023-04-09T13:55:23.623Z,18.40
2023-04-09T13:57:50.782Z,18.40
2023-04-09T14:00:20.790Z,18.40
2023-04-09T14:02:50.707Z,18.40
2023-04-09T14:05:17.954Z,18.40
2023-04-09T14:07:45.102Z,18.40
2023-04-09T14:10:12.540Z,18.40
2023-04-09T14:12:39.767Z,18.40
2023-04-09T14:15:10.433Z,18.40
2023-04-09T14:17:39.830Z,18.40
2023-04-09T14:20:13.404Z,18.30
2023-04-09T14:22:49.084Z,18.30
2023-04-09T14:25:18.932Z,18.30
2023-04-09T14:27:50.892Z,18.30
2023-04-09T14:30:18.300Z,18.30
2023-04-09T14:32:52.888Z,18.30
2023-04-09T14:35:22.711Z,18.30
2023-04-09T14:37:55.421Z,18.30
2023-04-09T14:40:25.070Z,18.30
2023-04-09T14:42:54.718Z,18.30
2023-04-09T14:45:22.004Z,18.30
2023-04-09T14:47:49.156Z,18.30
2023-04-09T14:50:16.370Z,18.30
2023-04-09T14:52:48.092Z,18.30
2023-04-09T14:55:16.050Z,18.30
2023-04-09T14:57:45.636Z,18.40
2023-04-09T15:00:13.301Z,18.40
2023-04-09T15:02:42.993Z,18.40
2023-04-09T15:05:13.012Z,18.40
2023-04-09T15:07:43.691Z,18.50
2023-04-09T15:10:15.703Z,18.50
2023-04-09T15:12:45.029Z,18.50
2023-04-09T15:15:14.595Z,18.50
2023-04-09T15:17:42.001Z,18.50
2023-04-09T15:20:09.562Z,18.40
2023-04-09T15:22:36.730Z,18.40
2023-04-09T15:25:06.528Z,18.40
2023-04-09T15:27:38.186Z,18.40
2023-04-09T15:30:06.388Z,18.30
2023-04-09T15:32:36.177Z,18.30
2023-04-09T15:35:08.291Z,18.30
2023-04-09T15:37:37.725Z,18.30
2023-04-09T15:40:05.134Z,18.30
2023-04-09T15:42:34.801Z,18.30
2023-04-09T15:45:06.831Z,18.30
2023-04-09T15:47:36.242Z,18.30
2023-04-09T15:50:05.481Z,18.40
2023-04-09T15:52:32.622Z,18.40
2023-04-09T15:55:02.318Z,18.30
2023-04-09T15:57:34.083Z,18.30
2023-04-09T16:00:03.914Z,18.30
2023-04-09T16:02:33.461Z,18.30
2023-04-09T16:05:03.181Z,18.30
2023-04-09T16:07:32.435Z,18.40
2023-04-09T16:10:01.596Z,18.40
2023-04-09T16:12:36.005Z,18.40
2023-04-09T16:15:03.157Z,18.40
2023-04-09T16:17:39.175Z,18.40
2023-04-09T16:20:10.445Z,18.50
2023-04-09T16:22:39.886Z,18.50
2023-04-09T16:25:07.605Z,18.50
2023-04-09T16:27:37.522Z,18.60
2023-04-09T16:30:05.015Z,18.60
2023-04-09T16:32:34.668Z,18.60
2023-04-09T16:35:10.047Z,18.60
2023-04-09T16:37:39.326Z,18.60
2023-04-09T16:40:09.160Z,18.60
2023-04-09T16:42:38.273Z,18.70
2023-04-09T16:45:09.728Z,18.70
2023-04-09T16:47:39.009Z,18.70
2023-04-09T16:50:14.725Z,18.70
2023-04-09T16:52:44.132Z,18.70
2023-04-09T16:55:16.471Z,18.70
2023-04-09T16:57:43.641Z,18.70
2023-04-09T17:00:13.849Z,18.70
2023-04-09T17:02:41.085Z,18.60
2023-04-09T17:05:09.220Z,18.60
2023-04-09T17:07:38.729Z,18.60
2023-04-09T17:10:06.714Z,18.60
2023-04-09T17:12:34.061Z,18.60
2023-04-09T17:15:03.478Z,18.60
2023-04-09T17:17:30.622Z,18.60
2023-04-09T17:20:01.737Z,18.60
2023-04-09T17:22:35.064Z,18.60
2023-04-09T17:25:04.850Z,18.50
2023-04-09T17:27:32.111Z,18.50
2023-04-09T17:30:04.374Z,18.60
2023-04-09T17:32:37.427Z,18.50
2023-04-09T17:35:07.072Z,18.50
2023-04-09T17:37:37.687Z,18.50
2023-04-09T17:40:07.848Z,18.50
2023-04-09T17:42:37.193Z,18.40
2023-04-09T17:45:07.464Z,18.40
2023-04-09T17:47:34.635Z,18.40
2023-04-09T17:50:07.599Z,18.40
2023-04-09T17:52:37.266Z,18.40
2023-04-09T17:55:17.341Z,18.40
2023-04-09T17:57:49.073Z,18.40
2023-04-09T18:00:16.704Z,18.30
2023-04-09T18:02:44.992Z,18.30
2023-04-09T18:05:12.498Z,18.20
2023-04-09T18:07:44.575Z,18.20
2023-04-09T18:10:11.697Z,18.10
2023-04-09T18:12:41.099Z,18.10
2023-04-09T18:15:11.535Z,18.00
2023-04-09T18:17:43.414Z,18.00
2023-04-09T18:20:15.511Z,17.90
2023-04-09T18:22:43.432Z,17.90
2023-04-09T18:25:10.651Z,17.80
2023-04-09T18:27:37.932Z,17.80
2023-04-09T18:30:05.722Z,17.70
2023-04-09T18:32:37.688Z,17.60
2023-04-09T18:35:05.645Z,17.50
2023-04-09T18:37:35.328Z,17.50
2023-04-09T18:40:02.853Z,17.40
2023-04-09T18:42:32.335Z,17.30
2023-04-09T18:45:03.885Z,17.30
2023-04-09T18:47:33.284Z,17.20
2023-04-09T18:50:03.867Z,17.20
2023-04-09T18:52:38.921Z,17.10
2023-04-09T18:55:06.672Z,17.00
2023-04-09T18:57:36.261Z,17.00
2023-04-09T19:00:06.192Z,16.90
2023-04-09T19:02:42.650Z,16.80
2023-04-09T19:05:14.776Z,16.80
2023-04-09T19:07:44.108Z,16.70
2023-04-09T19:10:13.742Z,16.60
2023-04-09T19:12:49.780Z,16.50
2023-04-09T19:15:19.509Z,16.50
2023-04-09T19:17:52.056Z,16.40
2023-04-09T19:20:21.899Z,16.30
2023-04-09T19:22:54.761Z,16.20
2023-04-09T19:25:24.194Z,16.10
2023-04-09T19:27:53.603Z,16.10
2023-04-09T19:30:21.270Z,16.00
2023-04-09T19:32:53.504Z,15.90
2023-04-09T19:35:23.739Z,15.90
2023-04-09T19:37:53.300Z,15.80
2023-04-09T19:40:22.656Z,15.70
2023-04-09T19:42:49.801Z,15.70
2023-04-09T19:45:19.359Z,15.60
2023-04-09T19:47:48.764Z,15.50
2023-04-09T19:50:16.371Z,15.40
2023-04-09T19:52:43.529Z,15.40
2023-04-09T19:55:10.663Z,15.30
2023-04-09T19:57:40.895Z,15.30
2023-04-09T20:00:10.963Z,15.30
2023-04-09T20:02:41.546Z,15.20
2023-04-09T20:05:15.950Z,15.20
2023-04-09T20:07:45.274Z,15.10
2023-04-09T20:10:14.789Z,15.10
2023-04-09T20:12:42.943Z,15.10
2023-04-09T20:15:12.598Z,15.10
2023-04-09T20:17:41.856Z,15.10
2023-04-09T20:20:12.140Z,15.10
2023-04-09T20:22:43.277Z,15.00
2023-04-09T20:25:13.844Z,15.10
2023-04-09T20:27:43.634Z,15.10
2023-04-09T20:30:17.854Z,15.10
2023-04-09T20:32:45.009Z,15.10
2023-04-09T20:35:14.675Z,15.10
2023-04-09T20:37:41.907Z,15.10
2023-04-09T20:40:11.754Z,15.10
2023-04-09T20:42:44.501Z,15.20
2023-04-09T20:45:14.547Z,15.20
2023-04-09T20:47:49.017Z,15.20
2023-04-09T20:50:16.495Z,15.20
2023-04-09T20:52:44.642Z,15.20
2023-04-09T20:55:14.177Z,15.20
2023-04-09T20:57:43.900Z,15.20
2023-04-09T21:00:14.104Z,15.20
2023-04-09T21:02:41.460Z,15.10
2023-04-09T21:05:21.941Z,15.10
2023-04-09T21:07:51.931Z,15.10
2023-04-09T21:10:24.598Z,15.10
2023-04-09T21:12:54.229Z,15.10
2023-04-09T21:15:21.341Z,15.10
2023-04-09T21:17:48.479Z,15.10
2023-04-09T21:20:17.926Z,15.10
2023-04-09T21:22:45.715Z,15.00
2023-04-09T21:25:15.694Z,15.10
2023-04-09T21:27:45.044Z,15.00
2023-04-09T21:30:19.313Z,15.00
2023-04-09T21:32:48.686Z,15.00
2023-04-09T21:35:16.086Z,15.00
2023-04-09T21:37:48.061Z,15.00
2023-04-09T21:40:17.909Z,15.00
2023-04-09T21:42:47.463Z,14.90
2023-04-09T21:45:14.624Z,14.90
2023-04-09T21:47:44.244Z,14.90
2023-04-09T21:50:16.637Z,14.80
2023-04-09T21:52:45.877Z,14.80
2023-04-09T21:55:16.462Z,14.80
2023-04-09T21:57:43.614Z,14.80
2023-04-09T22:00:16.171Z,14.70
2023-04-09T22:02:46.057Z,14.70
2023-04-09T22:05:16.023Z,14.70
2023-04-09T22:07:47.908Z,14.60
2023-04-09T22:10:15.141Z,14.60
2023-04-09T22:12:46.748Z,14.60
2023-04-09T22:15:16.382Z,14.60
2023-04-09T22:17:43.980Z,14.50
2023-04-09T22:20:11.278Z,14.50
2023-04-09T22:22:42.078Z,14.50
2023-04-09T22:25:11.942Z,14.40
2023-04-09T22:27:41.763Z,14.40
2023-04-09T22:30:13.848Z,14.30
2023-04-09T22:32:40.984Z,14.30
2023-04-09T22:35:17.952Z,14.30
2023-04-09T22:37:47.992Z,14.20
2023-04-09T22:40:18.248Z,14.20
2023-04-09T22:42:50.014Z,14.10
2023-04-09T22:45:17.154Z,14.10
2023-04-09T22:47:44.379Z,14.00
2023-04-09T22:50:16.299Z,14.00
2023-04-09T22:52:47.814Z,13.90
2023-04-09T22:55:14.978Z,13.90
2023-04-09T22:57:43.033Z,13.80
2023-04-09T23:00:10.589Z,13.80
2023-04-09T23:02:46.259Z,13.70
2023-04-09T23:05:17.317Z,13.70
2023-04-09T23:07:51.499Z,13.70
2023-04-09T23:10:21.475Z,13.60
2023-04-09T23:12:49.274Z,13.60
2023-04-09T23:15:19.024Z,13.60
2023-04-09T23:17:48.566Z,13.60
2023-04-09T23:20:20.677Z,13.50
2023-04-09T23:22:50.640Z,13.50
2023-04-09T23:25:22.918Z,13.50
2023-04-09T23:27:52.089Z,13.50
2023-04-09T23:30:23.662Z,13.50
2023-04-09T23:32:55.604Z,13.50
2023-04-09T23:35:26.919Z,13.50
2023-04-09T23:37:56.454Z,13.50
2023-04-09T23:40:26.247Z,13.50
2023-04-09T23:42:55.767Z,13.40
2023-04-09T23:45:25.043Z,13.40
2023-04-09T23:47:54.383Z,13.40
2023-04-09T23:50:23.129Z,13.40
2023-04-09T23:52:54.140Z,13.40
2023-04-09T23:55:21.238Z,13.40
2023-04-09T23:57:50.616Z,13.40
